createdAt,value
2016-12-09T00:02:40.546Z,1023.865
2016-12-09T00:05:35.196Z,1023.831
2016-12-09T00:08:29.969Z,1023.836
2016-12-09T00:11:24.666Z,1023.791
2016-12-09T00:14:19.469Z,1023.649
2016-12-09T00:20:08.940Z,1023.484
2016-12-09T00:25:58.410Z,1023.398
2016-12-09T00:28:53.111Z,1023.399
2016-12-09T00:31:47.888Z,1023.268
2016-12-09T00:34:42.787Z,1023.154
2016-12-09T00:37:37.569Z,1023.099
2016-12-09T00:40:32.214Z,1023.069
2016-12-09T00:43:26.821Z,1023.050
2016-12-09T00:46:21.563Z,1023.103
2016-12-09T00:49:16.338Z,1023.121
2016-12-09T00:52:10.997Z,1023.192
2016-12-09T00:55:05.780Z,1023.211
2016-12-09T00:58:00.517Z,1023.279
2016-12-09T01:00:55.318Z,1023.325
2016-12-09T01:03:50.161Z,1023.303
2016-12-09T01:06:44.954Z,1023.320
2016-12-09T01:09:39.580Z,1023.298
2016-12-09T01:12:34.195Z,1023.320
2016-12-09T01:15:29.061Z,1023.295
2016-12-09T01:18:23.805Z,1023.318
2016-12-09T01:21:18.484Z,1023.366
2016-12-09T01:27:08.048Z,1023.279
2016-12-09T01:30:02.745Z,1023.290
2016-12-09T01:32:57.450Z,1023.224
2016-12-09T01:35:52.154Z,1023.160
2016-12-09T01:38:46.915Z,1023.287
2016-12-09T01:41:41.594Z,1023.399
2016-12-09T01:44:36.871Z,1023.553
2016-12-09T01:50:26.380Z,1023.585
2016-12-09T01:53:21.102Z,1023.481
2016-12-09T01:56:15.869Z,1023.547
2016-12-09T01:59:10.535Z,1023.476
2016-12-09T02:02:05.217Z,1023.394
2016-12-09T02:04:59.905Z,1023.399
2016-12-09T02:07:54.530Z,1023.394
2016-12-09T02:10:49.240Z,1023.362
2016-12-09T02:13:44.072Z,1023.375
2016-12-09T02:16:38.725Z,1023.372
2016-12-09T02:19:33.343Z,1023.342
2016-12-09T02:22:28.099Z,1023.280
2016-12-09T02:25:23.303Z,1023.274
2016-12-09T02:28:17.990Z,1023.248
2016-12-09T02:31:12.971Z,1023.395
2016-12-09T02:34:07.648Z,1023.455
2016-12-09T02:39:56.970Z,1023.506
2016-12-09T02:42:51.736Z,1023.517
2016-12-09T02:45:46.433Z,1023.524
2016-12-09T02:48:41.125Z,1023.520
2016-12-09T02:51:35.819Z,1023.489
2016-12-09T02:54:30.607Z,1023.460
2016-12-09T02:57:25.324Z,1023.408
2016-12-09T03:00:19.960Z,1023.354
2016-12-09T03:03:14.691Z,1023.335
2016-12-09T03:06:09.428Z,1023.341
2016-12-09T03:09:04.140Z,1023.274
2016-12-09T03:11:58.980Z,1023.296
2016-12-09T03:14:53.618Z,1023.272
2016-12-09T03:17:48.337Z,1023.170
2016-12-09T03:20:42.981Z,1023.153
2016-12-09T03:23:37.660Z,1023.107
2016-12-09T03:26:32.826Z,1023.139
2016-12-09T03:29:27.550Z,1023.131
2016-12-09T03:32:22.332Z,1023.223
2016-12-09T03:35:17.088Z,1023.266
2016-12-09T03:38:11.795Z,1023.285
2016-12-09T03:44:01.224Z,1023.232
2016-12-09T03:46:55.922Z,1023.271
2016-12-09T03:49:50.576Z,1023.382
2016-12-09T03:52:45.227Z,1023.389
2016-12-09T03:58:34.793Z,1023.278
2016-12-09T04:01:29.509Z,1023.249
2016-12-09T04:04:24.302Z,1023.202
2016-12-09T04:10:13.660Z,1023.121
2016-12-09T04:13:08.434Z,1023.152
2016-12-09T04:16:03.120Z,1023.108
2016-12-09T04:18:57.865Z,1023.308
2016-12-09T04:21:52.479Z,1023.538
2016-12-09T04:24:47.242Z,1023.537
2016-12-09T04:27:41.990Z,1023.568
2016-12-09T04:30:36.820Z,1023.504
2016-12-09T04:33:31.411Z,1023.535
2016-12-09T04:36:26.317Z,1023.407
2016-12-09T04:39:20.994Z,1023.250
2016-12-09T04:45:10.189Z,1023.165
2016-12-09T04:48:04.837Z,1023.160
2016-12-09T04:50:59.548Z,1023.180
2016-12-09T04:53:54.115Z,1023.217
2016-12-09T04:56:48.709Z,1023.201
2016-12-09T04:59:43.638Z,1023.210
2016-12-09T05:02:38.260Z,1023.208
2016-12-09T05:05:32.888Z,1023.192
2016-12-09T05:08:27.437Z,1023.142
2016-12-09T05:11:22.116Z,1023.101
2016-12-09T05:14:16.737Z,1023.167
2016-12-09T05:17:11.493Z,1023.256
2016-12-09T05:23:00.760Z,1023.163
2016-12-09T05:25:55.374Z,1023.090
2016-12-09T05:28:49.933Z,1023.062
2016-12-09T05:31:44.996Z,1023.102
2016-12-09T05:34:39.639Z,1023.101
2016-12-09T05:43:23.725Z,1023.061
2016-12-09T05:46:18.252Z,1023.014
2016-12-09T05:49:12.879Z,1022.980
2016-12-09T05:55:02.251Z,1022.903
2016-12-09T05:57:56.977Z,1022.926
2016-12-09T06:00:51.554Z,1022.993
2016-12-09T06:03:46.256Z,1022.937
2016-12-09T06:06:40.823Z,1022.848
2016-12-09T06:09:35.573Z,1022.812
2016-12-09T06:12:30.580Z,1022.839
2016-12-09T06:15:25.290Z,1022.765
2016-12-09T06:18:19.826Z,1022.830
2016-12-09T06:21:14.367Z,1022.807
2016-12-09T06:24:09.060Z,1022.767
2016-12-09T06:27:03.686Z,1022.726
2016-12-09T06:32:53.024Z,1022.816
2016-12-09T06:35:48.254Z,1022.909
2016-12-09T06:44:32.139Z,1022.827
2016-12-09T06:47:26.750Z,1022.788
2016-12-09T06:50:21.462Z,1022.915
2016-12-09T06:53:16.065Z,1022.976
2016-12-09T06:56:10.583Z,1022.968
2016-12-09T06:59:05.308Z,1023.022
2016-12-09T07:01:59.999Z,1023.185
2016-12-09T07:04:54.551Z,1023.318
2016-12-09T07:07:49.166Z,1023.377
2016-12-09T07:10:43.855Z,1023.415
2016-12-09T07:13:38.394Z,1023.370
2016-12-09T07:16:33.108Z,1023.469
2016-12-09T07:19:27.839Z,1023.454
2016-12-09T07:22:22.569Z,1023.472
2016-12-09T07:25:17.225Z,1023.510
2016-12-09T07:28:11.930Z,1023.575
2016-12-09T07:31:06.548Z,1023.594
2016-12-09T07:36:55.882Z,1023.580
2016-12-09T07:39:50.600Z,1023.521
2016-12-09T07:42:45.212Z,1023.489
2016-12-09T07:45:39.884Z,1023.402
2016-12-09T07:48:34.625Z,1023.335
2016-12-09T07:51:29.359Z,1023.257
2016-12-09T07:54:24.050Z,1023.198
2016-12-09T08:00:13.629Z,1023.216
2016-12-09T08:03:08.256Z,1023.276
2016-12-09T08:06:02.913Z,1023.330
2016-12-09T08:08:57.692Z,1023.368
2016-12-09T08:11:52.565Z,1023.365
2016-12-09T08:14:47.192Z,1023.371
2016-12-09T08:17:41.876Z,1023.327
2016-12-09T08:20:36.599Z,1023.322
2016-12-09T08:23:31.283Z,1023.369
2016-12-09T08:26:26.147Z,1023.345
2016-12-09T08:29:21.225Z,1023.307
2016-12-09T08:32:15.854Z,1023.246
2016-12-09T08:35:10.456Z,1023.271
2016-12-09T08:38:05.189Z,1023.298
2016-12-09T08:40:59.767Z,1023.410
2016-12-09T08:43:54.430Z,1023.415
2016-12-09T08:46:49.196Z,1023.455
2016-12-09T08:49:43.917Z,1023.442
2016-12-09T08:52:38.509Z,1023.546
2016-12-09T09:01:23.131Z,1023.860
2016-12-09T09:04:17.800Z,1023.837
2016-12-09T09:07:12.381Z,1023.794
2016-12-09T09:10:07.056Z,1023.717
2016-12-09T09:13:01.927Z,1023.677
2016-12-09T09:15:56.511Z,1023.770
2016-12-09T09:21:45.945Z,1024.002
2016-12-09T09:24:40.719Z,1023.941
2016-12-09T09:27:35.363Z,1024.095
2016-12-09T09:30:30.074Z,1024.083
2016-12-09T09:36:19.496Z,1024.089
2016-12-09T09:39:14.241Z,1024.083
2016-12-09T09:42:08.894Z,1023.988
2016-12-09T09:45:03.620Z,1024.041
2016-12-09T09:47:58.426Z,1023.952
2016-12-09T09:50:53.187Z,1023.853
2016-12-09T09:53:47.900Z,1023.872
2016-12-09T09:56:42.684Z,1023.899
2016-12-09T10:02:32.191Z,1023.910
2016-12-09T10:05:27.004Z,1023.933
2016-12-09T10:08:21.667Z,1023.968
2016-12-09T10:11:16.380Z,1023.951
2016-12-09T10:14:11.133Z,1023.934
2016-12-09T10:20:00.645Z,1023.893
2016-12-09T10:22:55.327Z,1023.831
2016-12-09T10:28:44.836Z,1023.811
2016-12-09T10:31:39.424Z,1023.798
2016-12-09T10:37:29.302Z,1023.859
2016-12-09T10:40:24.077Z,1023.830
2016-12-09T10:43:18.908Z,1023.775
2016-12-09T10:46:13.619Z,1023.741
2016-12-09T10:49:08.355Z,1023.716
2016-12-09T10:52:03.125Z,1023.829
2016-12-09T10:54:57.861Z,1023.942
2016-12-09T10:57:52.601Z,1024.078
2016-12-09T11:00:47.243Z,1024.151
2016-12-09T11:03:41.936Z,1024.168
2016-12-09T11:06:36.675Z,1024.167
2016-12-09T11:09:31.319Z,1024.163
2016-12-09T11:12:25.925Z,1024.100
2016-12-09T11:24:04.791Z,1024.064
2016-12-09T11:26:59.432Z,1024.138
2016-12-09T11:32:48.586Z,1024.292
2016-12-09T11:38:37.768Z,1024.357
2016-12-09T11:41:32.265Z,1024.386
2016-12-09T11:44:26.868Z,1024.438
2016-12-09T11:47:21.400Z,1024.429
2016-12-09T11:50:15.938Z,1024.427
2016-12-09T11:53:10.624Z,1024.427
2016-12-09T11:56:05.162Z,1024.332
2016-12-09T11:58:59.818Z,1024.405
2016-12-09T12:01:54.465Z,1024.339
2016-12-09T12:04:49.024Z,1024.439
2016-12-09T12:07:43.513Z,1024.426
2016-12-09T12:10:38.084Z,1024.374
2016-12-09T12:13:32.650Z,1024.378
2016-12-09T12:19:21.792Z,1024.446
2016-12-09T12:22:16.323Z,1024.441
2016-12-09T12:28:05.454Z,1024.301
2016-12-09T12:31:00.121Z,1024.266
2016-12-09T12:33:54.665Z,1024.253
2016-12-09T12:36:49.284Z,1024.259
2016-12-09T12:39:43.909Z,1024.241
2016-12-09T12:42:38.549Z,1024.188
2016-12-09T12:45:33.048Z,1024.233
2016-12-09T12:48:27.553Z,1024.250
2016-12-09T12:51:22.056Z,1024.282
2016-12-09T12:54:16.588Z,1024.151
2016-12-09T12:57:11.065Z,1024.168
2016-12-09T13:00:05.534Z,1024.139
2016-12-09T13:03:00.001Z,1024.110
2016-12-09T13:05:54.592Z,1024.146
2016-12-09T13:08:49.190Z,1024.077
2016-12-09T13:11:43.577Z,1024.041
2016-12-09T13:14:37.996Z,1024.039
2016-12-09T13:17:32.359Z,1024.201
2016-12-09T13:20:25.096Z,1024.153
2016-12-09T13:23:21.424Z,1024.253
2016-12-09T13:26:15.875Z,1024.365
2016-12-09T13:29:10.248Z,1024.295
2016-12-09T13:32:04.517Z,1024.378
2016-12-09T13:34:58.860Z,1024.331
2016-12-09T13:37:53.276Z,1024.285
2016-12-09T13:40:47.651Z,1024.320
2016-12-09T13:43:42.088Z,1024.253
2016-12-09T13:46:36.507Z,1024.255
2016-12-09T13:49:30.906Z,1024.384
2016-12-09T13:52:25.272Z,1024.458
2016-12-09T13:55:19.508Z,1024.550
2016-12-09T13:58:13.835Z,1024.501
2016-12-09T14:01:08.057Z,1024.464
2016-12-09T14:04:02.397Z,1024.513
2016-12-09T14:09:51.023Z,1024.574
2016-12-09T14:12:45.383Z,1024.625
2016-12-09T14:15:39.835Z,1024.696
2016-12-09T14:18:34.095Z,1024.754
2016-12-09T14:21:28.600Z,1024.722
2016-12-09T14:24:22.933Z,1024.716
2016-12-09T14:27:17.288Z,1024.677
2016-12-09T14:30:11.651Z,1024.695
2016-12-09T14:33:05.929Z,1024.744
2016-12-09T14:36:00.179Z,1024.670
2016-12-09T14:38:54.475Z,1024.718
2016-12-09T14:41:48.789Z,1024.577
2016-12-09T14:44:43.080Z,1024.610
2016-12-09T14:47:37.380Z,1024.596
2016-12-09T14:50:31.623Z,1024.775
2016-12-09T14:53:25.955Z,1024.718
2016-12-09T14:56:20.247Z,1024.736
2016-12-09T14:59:14.554Z,1024.675
2016-12-09T15:02:08.932Z,1024.752
2016-12-09T15:05:03.201Z,1024.808
2016-12-09T15:07:57.430Z,1024.763
2016-12-09T15:10:51.822Z,1024.758
2016-12-09T15:13:46.156Z,1024.844
2016-12-09T15:16:40.364Z,1024.798
2016-12-09T15:19:34.671Z,1024.872
2016-12-09T15:22:29.007Z,1024.955
2016-12-09T15:25:23.317Z,1024.866
2016-12-09T15:28:17.575Z,1024.785
2016-12-09T15:31:11.814Z,1024.673
2016-12-09T15:34:06.095Z,1024.720
2016-12-09T15:37:00.677Z,1024.800
2016-12-09T15:39:54.858Z,1024.829
2016-12-09T15:42:49.450Z,1024.804
2016-12-09T15:48:38.127Z,1024.749
2016-12-09T15:51:32.293Z,1024.684
2016-12-09T15:54:26.685Z,1024.707
2016-12-09T15:57:20.930Z,1024.579
2016-12-09T16:00:15.219Z,1024.554
2016-12-09T16:03:09.575Z,1024.437
2016-12-09T16:06:03.762Z,1024.362
2016-12-09T16:08:58.040Z,1024.309
2016-12-09T16:11:52.273Z,1024.347
2016-12-09T16:14:46.511Z,1024.314
2016-12-09T16:20:34.994Z,1024.535
2016-12-09T16:23:29.282Z,1024.618
2016-12-09T16:26:23.492Z,1024.644
2016-12-09T16:29:17.732Z,1024.733
2016-12-09T16:32:11.920Z,1024.721
2016-12-09T16:35:06.207Z,1024.793
2016-12-09T16:38:00.428Z,1024.853
2016-12-09T16:40:54.492Z,1024.956
2016-12-09T16:43:48.773Z,1024.987
2016-12-09T16:46:43.014Z,1025.029
2016-12-09T16:49:37.165Z,1025.029
2016-12-09T16:58:19.852Z,1025.058
2016-12-09T17:01:14.065Z,1025.068
2016-12-09T17:04:08.307Z,1024.980
2016-12-09T17:07:02.826Z,1024.950
2016-12-09T17:12:51.454Z,1024.795
2016-12-09T17:15:45.728Z,1024.788
2016-12-09T17:18:40.102Z,1024.709
2016-12-09T17:21:34.301Z,1024.699
2016-12-09T17:24:28.551Z,1024.695
2016-12-09T17:30:17.168Z,1024.492
2016-12-09T17:33:11.661Z,1024.493
2016-12-09T17:36:05.869Z,1024.648
2016-12-09T17:39:00.216Z,1024.710
2016-12-09T17:41:55.003Z,1024.752
2016-12-09T17:44:49.266Z,1024.873
2016-12-09T17:47:43.404Z,1024.799
2016-12-09T17:50:37.643Z,1024.869
2016-12-09T17:53:31.835Z,1024.822
2016-12-09T17:56:25.936Z,1024.782
2016-12-09T17:59:20.095Z,1024.799
2016-12-09T18:02:14.300Z,1024.772
2016-12-09T18:05:08.570Z,1024.730
2016-12-09T18:10:57.161Z,1024.700
2016-12-09T18:13:51.303Z,1024.749
2016-12-09T18:16:45.718Z,1024.649
2016-12-09T18:19:40.262Z,1024.659
2016-12-09T18:22:34.521Z,1024.625
2016-12-09T18:25:28.869Z,1024.607
2016-12-09T18:28:23.470Z,1024.553
2016-12-09T18:31:17.582Z,1024.475
2016-12-09T18:34:11.889Z,1024.500
2016-12-09T18:37:06.169Z,1024.560
2016-12-09T18:40:00.393Z,1024.581
2016-12-09T18:42:54.650Z,1024.636
2016-12-09T18:45:48.904Z,1024.750
2016-12-09T18:48:43.232Z,1024.743
2016-12-09T18:54:31.589Z,1024.774
2016-12-09T18:57:25.870Z,1024.854
2016-12-09T19:00:20.036Z,1024.869
2016-12-09T19:03:14.246Z,1024.819
2016-12-09T19:09:03.237Z,1024.845
2016-12-09T19:11:57.431Z,1024.809
2016-12-09T19:14:51.749Z,1024.749
2016-12-09T19:17:46.052Z,1024.640
2016-12-09T19:20:40.250Z,1024.571
2016-12-09T19:23:34.519Z,1024.585
2016-12-09T19:26:28.675Z,1024.567
2016-12-09T19:29:22.864Z,1024.586
2016-12-09T19:32:17.124Z,1024.544
2016-12-09T19:35:11.433Z,1024.454
2016-12-09T19:38:05.732Z,1024.462
2016-12-09T19:43:54.162Z,1024.366
2016-12-09T19:46:48.927Z,1024.328
2016-12-09T19:49:43.302Z,1024.299
2016-12-09T19:52:37.469Z,1024.376
2016-12-09T19:58:25.986Z,1024.338
2016-12-09T20:01:20.319Z,1024.279
2016-12-09T20:04:14.726Z,1024.266
2016-12-09T20:07:08.884Z,1024.348
2016-12-09T20:10:03.129Z,1024.371
2016-12-09T20:12:57.361Z,1024.265
2016-12-09T20:15:51.484Z,1024.267
2016-12-09T20:18:45.738Z,1024.238
2016-12-09T20:21:40.016Z,1024.161
2016-12-09T20:24:34.270Z,1024.208
2016-12-09T20:27:29.163Z,1024.297
2016-12-09T20:30:22.979Z,1024.316
2016-12-09T20:33:17.698Z,1024.322
2016-12-09T20:36:11.966Z,1024.398
2016-12-09T20:39:06.307Z,1024.396
2016-12-09T20:42:00.472Z,1024.363
2016-12-09T20:44:54.741Z,1024.312
2016-12-09T20:47:49.085Z,1024.220
2016-12-09T20:50:43.361Z,1024.100
2016-12-09T20:53:37.575Z,1024.085
2016-12-09T20:56:31.780Z,1024.140
2016-12-09T20:59:26.076Z,1024.151
2016-12-09T21:02:20.384Z,1024.135
2016-12-09T21:05:14.543Z,1024.031
2016-12-09T21:08:08.702Z,1023.952
2016-12-09T21:11:02.982Z,1023.878
2016-12-09T21:13:57.126Z,1023.802
2016-12-09T21:19:45.688Z,1023.718
2016-12-09T21:22:39.929Z,1023.678
2016-12-09T21:25:34.312Z,1023.535
2016-12-09T21:31:22.852Z,1023.462
2016-12-09T21:34:17.159Z,1023.381
2016-12-09T21:37:11.651Z,1023.404
2016-12-09T21:40:05.974Z,1023.347
2016-12-09T21:43:00.256Z,1023.223
2016-12-09T21:45:54.592Z,1023.179
2016-12-09T21:48:48.808Z,1023.123
2016-12-09T21:51:43.098Z,1023.056
2016-12-09T21:54:37.212Z,1022.993
2016-12-09T21:57:31.915Z,1022.977
2016-12-09T22:00:26.043Z,1022.988
2016-12-09T22:03:20.258Z,1022.984
2016-12-09T22:06:14.604Z,1023.023
2016-12-09T22:09:08.801Z,1023.109
2016-12-09T22:12:02.978Z,1023.151
2016-12-09T22:14:57.211Z,1023.042
2016-12-09T22:17:51.699Z,1023.085
2016-12-09T22:23:40.369Z,1023.152
2016-12-09T22:26:34.609Z,1023.132
2016-12-09T22:29:28.743Z,1023.052
2016-12-09T22:32:22.882Z,1023.018
2016-12-09T22:35:17.077Z,1022.986
2016-12-09T22:38:11.408Z,1022.911
2016-12-09T22:41:05.658Z,1022.968
2016-12-09T22:43:59.877Z,1022.938
2016-12-09T22:46:54.323Z,1022.801
2016-12-09T22:49:48.520Z,1022.618
2016-12-09T22:55:37.111Z,1022.605
2016-12-09T22:58:31.418Z,1022.565
2016-12-09T23:01:25.643Z,1022.575
2016-12-09T23:04:19.771Z,1022.570
2016-12-09T23:07:13.949Z,1022.662
2016-12-09T23:10:08.136Z,1022.624
2016-12-09T23:13:02.261Z,1022.551
2016-12-09T23:15:56.465Z,1022.619
2016-12-09T23:21:44.927Z,1022.462
2016-12-09T23:24:39.281Z,1022.383
2016-12-09T23:27:33.421Z,1022.416
2016-12-09T23:30:27.735Z,1022.305
2016-12-09T23:36:16.290Z,1022.156
2016-12-09T23:39:11.117Z,1022.056
2016-12-09T23:42:05.397Z,1022.014
2016-12-09T23:44:59.652Z,1022.098
2016-12-09T23:47:53.885Z,1022.237
2016-12-09T23:50:48.021Z,1022.186
2016-12-09T23:53:42.216Z,1022.157
2016-12-09T23:56:36.470Z,1022.122
2016-12-09T23:59:30.813Z,1022.109
